sensor_id;sensor_type;location;lat;lon;timestamp;temperature;humidity
5346;DHT22;2695;49.444;11.054;2022-08-11T00:01:20;20.20;56.40
5346;DHT22;2695;49.444;11.054;2022-08-11T00:03:54;20.10;56.50
5346;DHT22;2695;49.444;11.054;2022-08-11T00:06:25;20.10;56.60
5346;DHT22;2695;49.444;11.054;2022-08-11T00:08:54;20.10;56.90
5346;DHT22;2695;49.444;11.054;2022-08-11T00:11:33;20.00;57.10
5346;DHT22;2695;49.444;11.054;2022-08-11T00:14:03;20.00;57.00
5346;DHT22;2695;49.444;11.054;2022-08-11T00:16:32;19.90;57.20
5346;DHT22;2695;49.444;11.054;2022-08-11T00:19:01;19.90;57.40
5346;DHT22;2695;49.444;11.054;2022-08-11T00:21:30;19.80;57.50
5346;DHT22;2695;49.444;11.054;2022-08-11T00:24:19;19.80;57.70
5346;DHT22;2695;49.444;11.054;2022-08-11T00:26:50;19.70;57.90
5346;DHT22;2695;49.444;11.054;2022-08-11T00:29:20;19.60;58.00
5346;DHT22;2695;49.444;11.054;2022-08-11T00:31:51;19.60;58.10
5346;DHT22;2695;49.444;11.054;2022-08-11T00:34:22;19.60;58.00
5346;DHT22;2695;49.444;11.054;2022-08-11T00:36:54;19.60;58.10
5346;DHT22;2695;49.444;11.054;2022-08-11T00:39:24;19.60;58.20
5346;DHT22;2695;49.444;11.054;2022-08-11T00:42:05;19.60;58.20
5346;DHT22;2695;49.444;11.054;2022-08-11T00:44:48;19.60;58.30
5346;DHT22;2695;49.444;11.054;2022-08-11T00:47:32;19.60;58.50
5346;DHT22;2695;49.444;11.054;2022-08-11T00:50:10;19.50;58.50
5346;DHT22;2695;49.444;11.054;2022-08-11T00:52:54;19.50;58.60
5346;DHT22;2695;49.444;11.054;2022-08-11T00:55:41;19.50;58.80
5346;DHT22;2695;49.444;11.054;2022-08-11T01:02:10;19.50;58.80
5346;DHT22;2695;49.444;11.054;2022-08-11T01:11:06;19.40;59.20
5346;DHT22;2695;49.444;11.054;2022-08-11T01:14:04;19.40;59.40
5346;DHT22;2695;49.444;11.054;2022-08-11T01:17:03;19.40;59.60
5346;DHT22;2695;49.444;11.054;2022-08-11T01:19:54;19.30;59.80
5346;DHT22;2695;49.444;11.054;2022-08-11T01:23:03;19.30;60.00
5346;DHT22;2695;49.444;11.054;2022-08-11T01:25:53;19.30;60.20
5346;DHT22;2695;49.444;11.054;2022-08-11T01:35:33;19.20;61.00
5346;DHT22;2695;49.444;11.054;2022-08-11T01:38:26;19.10;61.30
5346;DHT22;2695;49.444;11.054;2022-08-11T01:41:39;19.10;61.40
5346;DHT22;2695;49.444;11.054;2022-08-11T01:47:46;19.10;61.70
5346;DHT22;2695;49.444;11.054;2022-08-11T01:50:30;19.10;62.10
5346;DHT22;2695;49.444;11.054;2022-08-11T01:53:10;19.00;62.30
5346;DHT22;2695;49.444;11.054;2022-08-11T01:55:48;19.00;62.80
5346;DHT22;2695;49.444;11.054;2022-08-11T01:58:26;18.90;63.00
5346;DHT22;2695;49.444;11.054;2022-08-11T02:01:28;18.90;63.20
5346;DHT22;2695;49.444;11.054;2022-08-11T02:04:08;18.90;63.80
5346;DHT22;2695;49.444;11.054;2022-08-11T02:06:51;18.90;64.30
5346;DHT22;2695;49.444;11.054;2022-08-11T02:09:32;18.80;64.40
5346;DHT22;2695;49.444;11.054;2022-08-11T02:12:38;18.80;64.80
5346;DHT22;2695;49.444;11.054;2022-08-11T02:15:24;18.80;65.00
5346;DHT22;2695;49.444;11.054;2022-08-11T02:17:59;18.80;65.20
5346;DHT22;2695;49.444;11.054;2022-08-11T02:20:35;18.80;65.60
5346;DHT22;2695;49.444;11.054;2022-08-11T02:23:38;18.80;65.70
5346;DHT22;2695;49.444;11.054;2022-08-11T02:26:34;18.70;65.90
5346;DHT22;2695;49.444;11.054;2022-08-11T02:29:11;18.70;66.10
5346;DHT22;2695;49.444;11.054;2022-08-11T02:31:46;18.70;66.60
5346;DHT22;2695;49.444;11.054;2022-08-11T02:35:02;18.70;66.70
5346;DHT22;2695;49.444;11.054;2022-08-11T02:37:41;18.60;67.00
5346;DHT22;2695;49.444;11.054;2022-08-11T02:40:28;18.60;67.40
5346;DHT22;2695;49.444;11.054;2022-08-11T02:43:08;18.60;67.90
5346;DHT22;2695;49.444;11.054;2022-08-11T02:45:47;18.50;68.60
5346;DHT22;2695;49.444;11.054;2022-08-11T02:48:49;18.40;69.00
5346;DHT22;2695;49.444;11.054;2022-08-11T02:51:41;18.40;69.70
5346;DHT22;2695;49.444;11.054;2022-08-11T02:54:16;18.40;70.00
5346;DHT22;2695;49.444;11.054;2022-08-11T02:56:51;18.40;70.30
5346;DHT22;2695;49.444;11.054;2022-08-11T02:59:42;18.40;70.80
5346;DHT22;2695;49.444;11.054;2022-08-11T03:02:30;18.30;71.20
5346;DHT22;2695;49.444;11.054;2022-08-11T03:05:11;18.30;71.60
5346;DHT22;2695;49.444;11.054;2022-08-11T03:07:50;18.30;71.90
5346;DHT22;2695;49.444;11.054;2022-08-11T03:10:33;18.30;72.10
5346;DHT22;2695;49.444;11.054;2022-08-11T03:13:12;18.10;72.20
5346;DHT22;2695;49.444;11.054;2022-08-11T03:16:09;18.20;72.70
5346;DHT22;2695;49.444;11.054;2022-08-11T03:19:07;18.20;73.20
5346;DHT22;2695;49.444;11.054;2022-08-11T03:21:50;18.20;73.40
5346;DHT22;2695;49.444;11.054;2022-08-11T03:24:39;18.20;73.70
5346;DHT22;2695;49.444;11.054;2022-08-11T03:27:25;18.10;74.00
5346;DHT22;2695;49.444;11.054;2022-08-11T03:30:05;18.10;74.50
5346;DHT22;2695;49.444;11.054;2022-08-11T03:32:40;18.00;74.90
5346;DHT22;2695;49.444;11.054;2022-08-11T03:35:10;18.00;75.50
5346;DHT22;2695;49.444;11.054;2022-08-11T03:37:52;17.90;75.60
5346;DHT22;2695;49.444;11.054;2022-08-11T03:40:46;18.00;75.90
5346;DHT22;2695;49.444;11.054;2022-08-11T03:44:28;18.00;76.20
5346;DHT22;2695;49.444;11.054;2022-08-11T03:47:12;17.90;76.50
5346;DHT22;2695;49.444;11.054;2022-08-11T03:49:53;17.90;76.70
5346;DHT22;2695;49.444;11.054;2022-08-11T03:52:31;17.90;76.90
5346;DHT22;2695;49.444;11.054;2022-08-11T03:55:13;17.90;77.40
5346;DHT22;2695;49.444;11.054;2022-08-11T04:01:06;17.90;77.90
5346;DHT22;2695;49.444;11.054;2022-08-11T04:03:59;17.80;78.20
5346;DHT22;2695;49.444;11.054;2022-08-11T04:12:58;17.80;79.10
5346;DHT22;2695;49.444;11.054;2022-08-11T04:16:00;17.80;79.20
5346;DHT22;2695;49.444;11.054;2022-08-11T04:19:15;17.80;79.40
5346;DHT22;2695;49.444;11.054;2022-08-11T04:31:29;19.20;74.20
5346;DHT22;2695;49.444;11.054;2022-08-11T04:34:43;19.70;71.90
5346;DHT22;2695;49.444;11.054;2022-08-11T04:37:32;20.10;69.40
5346;DHT22;2695;49.444;11.054;2022-08-11T04:40:33;20.60;67.70
5346;DHT22;2695;49.444;11.054;2022-08-11T04:49:56;22.10;61.30
5346;DHT22;2695;49.444;11.054;2022-08-11T04:53:24;22.80;59.60
5346;DHT22;2695;49.444;11.054;2022-08-11T04:56:20;23.50;57.10
5346;DHT22;2695;49.444;11.054;2022-08-11T04:59:29;23.60;56.00
5346;DHT22;2695;49.444;11.054;2022-08-11T05:02:48;23.70;55.20
5346;DHT22;2695;49.444;11.054;2022-08-11T05:05:35;23.80;55.30
5346;DHT22;2695;49.444;11.054;2022-08-11T05:08:54;24.20;54.30
5346;DHT22;2695;49.444;11.054;2022-08-11T05:11:42;24.90;52.90
5346;DHT22;2695;49.444;11.054;2022-08-11T05:14:29;25.30;51.50
5346;DHT22;2695;49.444;11.054;2022-08-11T05:17:30;25.50;51.20
5346;DHT22;2695;49.444;11.054;2022-08-11T05:20:20;26.00;49.80
5346;DHT22;2695;49.444;11.054;2022-08-11T05:23:08;26.20;48.80
5346;DHT22;2695;49.444;11.054;2022-08-11T05:25:57;26.20;49.20
5346;DHT22;2695;49.444;11.054;2022-08-11T05:29:24;26.20;48.70
5346;DHT22;2695;49.444;11.054;2022-08-11T05:32:14;26.50;48.20
5346;DHT22;2695;49.444;11.054;2022-08-11T05:35:04;26.50;47.60
5346;DHT22;2695;49.444;11.054;2022-08-11T05:37:40;26.50;48.40
5346;DHT22;2695;49.444;11.054;2022-08-11T05:40:25;26.70;47.80
5346;DHT22;2695;49.444;11.054;2022-08-11T05:43:38;26.80;47.30
5346;DHT22;2695;49.444;11.054;2022-08-11T05:46:45;27.20;46.70
5346;DHT22;2695;49.444;11.054;2022-08-11T05:49:33;27.60;45.50
5346;DHT22;2695;49.444;11.054;2022-08-11T05:52:22;28.00;45.10
5346;DHT22;2695;49.444;11.054;2022-08-11T05:55:09;28.60;43.90
5346;DHT22;2695;49.444;11.054;2022-08-11T05:58:00;28.90;42.80
5346;DHT22;2695;49.444;11.054;2022-08-11T06:00:30;29.00;42.80
5346;DHT22;2695;49.444;11.054;2022-08-11T06:03:00;29.30;41.90
5346;DHT22;2695;49.444;11.054;2022-08-11T06:05:35;29.00;42.20
5346;DHT22;2695;49.444;11.054;2022-08-11T06:08:11;29.30;42.00
5346;DHT22;2695;49.444;11.054;2022-08-11T06:10:41;29.20;41.60
5346;DHT22;2695;49.444;11.054;2022-08-11T06:13:15;29.30;41.60
5346;DHT22;2695;49.444;11.054;2022-08-11T06:15:45;29.80;41.00
5346;DHT22;2695;49.444;11.054;2022-08-11T06:18:14;30.40;39.90
5346;DHT22;2695;49.444;11.054;2022-08-11T06:20:46;30.50;39.40
5346;DHT22;2695;49.444;11.054;2022-08-11T06:23:15;30.30;39.80
5346;DHT22;2695;49.444;11.054;2022-08-11T06:25:45;30.90;39.20
5346;DHT22;2695;49.444;11.054;2022-08-11T06:28:15;31.30;38.30
5346;DHT22;2695;49.444;11.054;2022-08-11T06:30:47;31.60;37.70
5346;DHT22;2695;49.444;11.054;2022-08-11T06:33:18;31.70;37.40
5346;DHT22;2695;49.444;11.054;2022-08-11T06:35:53;32.40;36.70
5346;DHT22;2695;49.444;11.054;2022-08-11T06:38:45;32.70;35.80
5346;DHT22;2695;49.444;11.054;2022-08-11T06:41:20;33.20;35.10
5346;DHT22;2695;49.444;11.054;2022-08-11T06:44:18;33.80;34.20
5346;DHT22;2695;49.444;11.054;2022-08-11T06:46:51;34.10;33.30
5346;DHT22;2695;49.444;11.054;2022-08-11T06:49:30;34.30;33.00
5346;DHT22;2695;49.444;11.054;2022-08-11T06:52:17;33.80;33.40
5346;DHT22;2695;49.444;11.054;2022-08-11T06:55:06;34.30;33.10
5346;DHT22;2695;49.444;11.054;2022-08-11T06:57:55;34.70;32.50
5346;DHT22;2695;49.444;11.054;2022-08-11T07:00:43;35.40;31.90
5346;DHT22;2695;49.444;11.054;2022-08-11T07:03:16;35.40;31.40
5346;DHT22;2695;49.444;11.054;2022-08-11T07:05:50;35.60;31.00
5346;DHT22;2695;49.444;11.054;2022-08-11T07:09:05;36.00;30.80
5346;DHT22;2695;49.444;11.054;2022-08-11T07:12:07;36.60;29.80
5346;DHT22;2695;49.444;11.054;2022-08-11T07:15:01;36.80;29.30
5346;DHT22;2695;49.444;11.054;2022-08-11T07:17:50;36.40;29.40
5346;DHT22;2695;49.444;11.054;2022-08-11T07:20:40;36.20;29.90
5346;DHT22;2695;49.444;11.054;2022-08-11T07:23:31;36.80;29.50
5346;DHT22;2695;49.444;11.054;2022-08-11T07:26:20;37.30;28.90
5346;DHT22;2695;49.444;11.054;2022-08-11T07:29:06;37.40;28.80
5346;DHT22;2695;49.444;11.054;2022-08-11T07:31:40;37.40;29.10
5346;DHT22;2695;49.444;11.054;2022-08-11T07:34:19;37.80;28.50
5346;DHT22;2695;49.444;11.054;2022-08-11T07:36:50;38.10;28.40
5346;DHT22;2695;49.444;11.054;2022-08-11T07:39:20;37.90;28.20
5346;DHT22;2695;49.444;11.054;2022-08-11T07:41:51;38.00;28.10
5346;DHT22;2695;49.444;11.054;2022-08-11T07:44:20;38.70;27.80
5346;DHT22;2695;49.444;11.054;2022-08-11T07:46:58;39.00;27.00
5346;DHT22;2695;49.444;11.054;2022-08-11T07:49:47;39.20;26.80
5346;DHT22;2695;49.444;11.054;2022-08-11T07:52:35;39.20;27.00
5346;DHT22;2695;49.444;11.054;2022-08-11T07:55:11;39.10;26.70
5346;DHT22;2695;49.444;11.054;2022-08-11T07:57:42;39.20;26.70
5346;DHT22;2695;49.444;11.054;2022-08-11T08:00:53;39.60;26.20
5346;DHT22;2695;49.444;11.054;2022-08-11T08:03:48;39.00;26.50
5346;DHT22;2695;49.444;11.054;2022-08-11T08:06:37;39.00;26.60
5346;DHT22;2695;49.444;11.054;2022-08-11T08:09:23;38.10;26.90
5346;DHT22;2695;49.444;11.054;2022-08-11T08:12:09;37.10;27.80
5346;DHT22;2695;49.444;11.054;2022-08-11T08:14:57;37.20;28.00
5346;DHT22;2695;49.444;11.054;2022-08-11T08:17:43;37.20;28.10
5346;DHT22;2695;49.444;11.054;2022-08-11T08:20:45;37.10;27.60
5346;DHT22;2695;49.444;11.054;2022-08-11T08:23:15;37.10;27.40
5346;DHT22;2695;49.444;11.054;2022-08-11T08:25:45;36.70;27.90
5346;DHT22;2695;49.444;11.054;2022-08-11T08:28:15;36.80;28.00
5346;DHT22;2695;49.444;11.054;2022-08-11T08:30:44;36.90;26.70
5346;DHT22;2695;49.444;11.054;2022-08-11T08:33:20;36.40;27.00
5346;DHT22;2695;49.444;11.054;2022-08-11T08:35:51;36.20;27.60
5346;DHT22;2695;49.444;11.054;2022-08-11T08:38:41;35.90;27.90
5346;DHT22;2695;49.444;11.054;2022-08-11T08:41:10;35.40;27.70
5346;DHT22;2695;49.444;11.054;2022-08-11T08:43:44;35.60;28.30
5346;DHT22;2695;49.444;11.054;2022-08-11T08:46:19;36.40;27.80
5346;DHT22;2695;49.444;11.054;2022-08-11T08:48:49;36.40;27.70
5346;DHT22;2695;49.444;11.054;2022-08-11T08:51:20;36.80;27.20
5346;DHT22;2695;49.444;11.054;2022-08-11T08:54:42;36.40;27.30
5346;DHT22;2695;49.444;11.054;2022-08-11T08:57:12;36.20;27.10
5346;DHT22;2695;49.444;11.054;2022-08-11T08:59:47;36.00;27.10
5346;DHT22;2695;49.444;11.054;2022-08-11T09:02:18;36.00;27.50
5346;DHT22;2695;49.444;11.054;2022-08-11T09:05:02;36.00;27.20
5346;DHT22;2695;49.444;11.054;2022-08-11T09:07:35;36.20;27.60
5346;DHT22;2695;49.444;11.054;2022-08-11T09:10:08;36.60;27.10
5346;DHT22;2695;49.444;11.054;2022-08-11T09:12:39;36.70;26.60
5346;DHT22;2695;49.444;11.054;2022-08-11T09:15:09;37.30;26.10
5346;DHT22;2695;49.444;11.054;2022-08-11T09:17:40;37.30;25.70
5346;DHT22;2695;49.444;11.054;2022-08-11T09:20:12;37.50;25.80
5346;DHT22;2695;49.444;11.054;2022-08-11T09:22:42;37.40;24.90
5346;DHT22;2695;49.444;11.054;2022-08-11T09:25:52;36.40;25.70
5346;DHT22;2695;49.444;11.054;2022-08-11T09:28:41;35.80;26.70
5346;DHT22;2695;49.444;11.054;2022-08-11T09:31:10;36.10;27.20
5346;DHT22;2695;49.444;11.054;2022-08-11T09:33:40;36.30;27.20
5346;DHT22;2695;49.444;11.054;2022-08-11T09:36:10;36.70;27.00
5346;DHT22;2695;49.444;11.054;2022-08-11T09:38:57;36.80;27.10
5346;DHT22;2695;49.444;11.054;2022-08-11T09:41:46;37.00;25.40
5346;DHT22;2695;49.444;11.054;2022-08-11T09:44:30;36.30;25.40
5346;DHT22;2695;49.444;11.054;2022-08-11T09:47:20;35.50;26.50
5346;DHT22;2695;49.444;11.054;2022-08-11T09:49:52;35.50;26.70
5346;DHT22;2695;49.444;11.054;2022-08-11T09:52:22;35.10;27.30
5346;DHT22;2695;49.444;11.054;2022-08-11T09:54:52;35.10;26.80
5346;DHT22;2695;49.444;11.054;2022-08-11T09:57:24;35.00;26.70
5346;DHT22;2695;49.444;11.054;2022-08-11T10:00:12;35.10;26.80
5346;DHT22;2695;49.444;11.054;2022-08-11T10:02:44;35.40;26.10
5346;DHT22;2695;49.444;11.054;2022-08-11T10:05:16;35.70;26.10
5346;DHT22;2695;49.444;11.054;2022-08-11T10:08:03;35.60;26.00
5346;DHT22;2695;49.444;11.054;2022-08-11T10:10:37;35.30;26.20
5346;DHT22;2695;49.444;11.054;2022-08-11T10:13:10;35.40;26.00
5346;DHT22;2695;49.444;11.054;2022-08-11T10:16:02;35.80;26.00
5346;DHT22;2695;49.444;11.054;2022-08-11T10:18:48;36.60;25.70
5346;DHT22;2695;49.444;11.054;2022-08-11T10:21:24;36.90;25.10
5346;DHT22;2695;49.444;11.054;2022-08-11T10:23:57;36.70;25.00
5346;DHT22;2695;49.444;11.054;2022-08-11T10:26:45;36.50;25.30
5346;DHT22;2695;49.444;11.054;2022-08-11T10:29:32;36.50;25.20
5346;DHT22;2695;49.444;11.054;2022-08-11T10:32:22;36.00;25.00
5346;DHT22;2695;49.444;11.054;2022-08-11T10:35:24;35.50;25.50
5346;DHT22;2695;49.444;11.054;2022-08-11T10:38:02;35.30;26.60
5346;DHT22;2695;49.444;11.054;2022-08-11T10:40:36;35.30;26.50
5346;DHT22;2695;49.444;11.054;2022-08-11T10:43:07;35.80;25.60
5346;DHT22;2695;49.444;11.054;2022-08-11T10:45:44;36.20;26.00
5346;DHT22;2695;49.444;11.054;2022-08-11T10:48:35;36.10;25.30
5346;DHT22;2695;49.444;11.054;2022-08-11T10:51:06;35.70;26.10
5346;DHT22;2695;49.444;11.054;2022-08-11T10:53:44;35.80;26.20
5346;DHT22;2695;49.444;11.054;2022-08-11T10:56:34;35.80;26.00
5346;DHT22;2695;49.444;11.054;2022-08-11T10:59:20;36.20;26.00
5346;DHT22;2695;49.444;11.054;2022-08-11T11:01:51;37.00;25.80
5346;DHT22;2695;49.444;11.054;2022-08-11T11:04:26;37.70;25.20
5346;DHT22;2695;49.444;11.054;2022-08-11T11:07:03;38.10;24.70
5346;DHT22;2695;49.444;11.054;2022-08-11T11:09:37;38.10;24.60
5346;DHT22;2695;49.444;11.054;2022-08-11T11:12:10;37.60;24.80
5346;DHT22;2695;49.444;11.054;2022-08-11T11:15:00;37.10;23.90
5346;DHT22;2695;49.444;11.054;2022-08-11T11:17:52;36.50;24.10
5346;DHT22;2695;49.444;11.054;2022-08-11T11:20:25;36.00;24.30
5346;DHT22;2695;49.444;11.054;2022-08-11T11:23:09;35.00;24.10
5346;DHT22;2695;49.444;11.054;2022-08-11T11:31:51;33.50;27.20
5346;DHT22;2695;49.444;11.054;2022-08-11T11:34:35;33.50;26.90
5346;DHT22;2695;49.444;11.054;2022-08-11T11:37:20;33.60;26.10
5346;DHT22;2695;49.444;11.054;2022-08-11T11:39:49;34.00;26.00
5346;DHT22;2695;49.444;11.054;2022-08-11T11:42:19;34.20;26.30
5346;DHT22;2695;49.444;11.054;2022-08-11T11:44:48;34.00;26.60
5346;DHT22;2695;49.444;11.054;2022-08-11T11:47:22;33.40;26.10
5346;DHT22;2695;49.444;11.054;2022-08-11T11:49:51;33.00;26.30
5346;DHT22;2695;49.444;11.054;2022-08-11T11:52:21;33.10;26.80
5346;DHT22;2695;49.444;11.054;2022-08-11T11:54:51;32.90;27.00
5346;DHT22;2695;49.444;11.054;2022-08-11T11:57:21;32.70;27.40
5346;DHT22;2695;49.444;11.054;2022-08-11T12:00:24;32.50;27.00
5346;DHT22;2695;49.444;11.054;2022-08-11T12:03:10;32.30;27.40
5346;DHT22;2695;49.444;11.054;2022-08-11T12:05:41;32.10;28.20
5346;DHT22;2695;49.444;11.054;2022-08-11T12:08:11;32.20;28.30
5346;DHT22;2695;49.444;11.054;2022-08-11T12:10:44;32.30;28.50
5346;DHT22;2695;49.444;11.054;2022-08-11T12:13:14;32.40;27.40
5346;DHT22;2695;49.444;11.054;2022-08-11T12:16:01;32.30;28.00
5346;DHT22;2695;49.444;11.054;2022-08-11T12:18:53;32.00;27.20
5346;DHT22;2695;49.444;11.054;2022-08-11T12:21:23;31.60;27.40
5346;DHT22;2695;49.444;11.054;2022-08-11T12:23:54;31.30;28.00
5346;DHT22;2695;49.444;11.054;2022-08-11T12:26:42;31.00;28.50
5346;DHT22;2695;49.444;11.054;2022-08-11T12:29:45;30.70;29.00
5346;DHT22;2695;49.444;11.054;2022-08-11T12:32:22;30.70;28.90
5346;DHT22;2695;49.444;11.054;2022-08-11T12:34:51;30.80;28.00
5346;DHT22;2695;49.444;11.054;2022-08-11T12:37:23;30.80;27.60
5346;DHT22;2695;49.444;11.054;2022-08-11T12:39:59;30.70;28.10
5346;DHT22;2695;49.444;11.054;2022-08-11T12:43:08;30.40;28.00
5346;DHT22;2695;49.444;11.054;2022-08-11T12:46:07;30.10;28.70
5346;DHT22;2695;49.444;11.054;2022-08-11T12:48:42;29.90;28.90
5346;DHT22;2695;49.444;11.054;2022-08-11T12:51:32;29.90;29.60
5346;DHT22;2695;49.444;11.054;2022-08-11T12:54:48;29.90;30.20
5346;DHT22;2695;49.444;11.054;2022-08-11T12:57:27;29.90;30.40
5346;DHT22;2695;49.444;11.054;2022-08-11T13:00:15;29.80;29.70
5346;DHT22;2695;49.444;11.054;2022-08-11T13:03:01;29.70;29.30
5346;DHT22;2695;49.444;11.054;2022-08-11T13:05:47;29.60;28.90
5346;DHT22;2695;49.444;11.054;2022-08-11T13:08:20;29.60;29.70
5346;DHT22;2695;49.444;11.054;2022-08-11T13:10:51;29.40;30.00
5346;DHT22;2695;49.444;11.054;2022-08-11T13:13:39;29.30;30.30
5346;DHT22;2695;49.444;11.054;2022-08-11T13:16:23;29.20;30.80
5346;DHT22;2695;49.444;11.054;2022-08-11T13:18:52;29.20;30.10
5346;DHT22;2695;49.444;11.054;2022-08-11T13:21:20;29.40;30.10
5346;DHT22;2695;49.444;11.054;2022-08-11T13:23:52;29.50;29.60
5346;DHT22;2695;49.444;11.054;2022-08-11T13:26:30;29.50;29.00
5346;DHT22;2695;49.444;11.054;2022-08-11T13:29:13;29.50;29.00
5346;DHT22;2695;49.444;11.054;2022-08-11T13:31:42;29.40;30.20
5346;DHT22;2695;49.444;11.054;2022-08-11T13:34:10;29.50;30.40
5346;DHT22;2695;49.444;11.054;2022-08-11T13:36:40;29.30;30.60
5346;DHT22;2695;49.444;11.054;2022-08-11T13:39:08;29.20;30.50
5346;DHT22;2695;49.444;11.054;2022-08-11T13:41:40;29.00;30.90
5346;DHT22;2695;49.444;11.054;2022-08-11T13:44:12;29.10;30.80
5346;DHT22;2695;49.444;11.054;2022-08-11T13:46:44;29.20;30.60
5346;DHT22;2695;49.444;11.054;2022-08-11T13:49:15;29.30;30.60
5346;DHT22;2695;49.444;11.054;2022-08-11T13:51:43;29.40;30.40
5346;DHT22;2695;49.444;11.054;2022-08-11T13:54:16;29.50;30.00
5346;DHT22;2695;49.444;11.054;2022-08-11T13:56:47;29.50;30.40
5346;DHT22;2695;49.444;11.054;2022-08-11T13:59:18;29.60;30.60
5346;DHT22;2695;49.444;11.054;2022-08-11T14:01:58;29.40;30.90
5346;DHT22;2695;49.444;11.054;2022-08-11T14:04:52;29.20;31.60
5346;DHT22;2695;49.444;11.054;2022-08-11T14:07:24;29.10;31.70
5346;DHT22;2695;49.444;11.054;2022-08-11T14:09:57;29.10;31.70
5346;DHT22;2695;49.444;11.054;2022-08-11T14:12:28;29.20;31.70
5346;DHT22;2695;49.444;11.054;2022-08-11T14:15:18;29.20;32.10
5346;DHT22;2695;49.444;11.054;2022-08-11T14:17:51;29.20;31.40
5346;DHT22;2695;49.444;11.054;2022-08-11T14:20:21;29.20;31.10
5346;DHT22;2695;49.444;11.054;2022-08-11T14:23:07;29.30;30.90
5346;DHT22;2695;49.444;11.054;2022-08-11T14:25:38;29.30;30.20
5346;DHT22;2695;49.444;11.054;2022-08-11T14:28:32;29.30;29.80
5346;DHT22;2695;49.444;11.054;2022-08-11T14:31:09;29.30;29.90
5346;DHT22;2695;49.444;11.054;2022-08-11T14:33:39;29.40;30.20
5346;DHT22;2695;49.444;11.054;2022-08-11T14:36:30;29.40;30.20
5346;DHT22;2695;49.444;11.054;2022-08-11T14:39:04;29.50;30.40
5346;DHT22;2695;49.444;11.054;2022-08-11T14:41:33;29.50;30.30
5346;DHT22;2695;49.444;11.054;2022-08-11T14:44:42;29.60;30.10
5346;DHT22;2695;49.444;11.054;2022-08-11T14:47:30;29.70;30.40
5346;DHT22;2695;49.444;11.054;2022-08-11T14:50:00;29.80;30.80
5346;DHT22;2695;49.444;11.054;2022-08-11T14:52:42;29.70;30.30
5346;DHT22;2695;49.444;11.054;2022-08-11T14:55:12;29.50;30.10
5346;DHT22;2695;49.444;11.054;2022-08-11T14:57:58;29.50;30.60
5346;DHT22;2695;49.444;11.054;2022-08-11T15:00:29;29.60;30.00
5346;DHT22;2695;49.444;11.054;2022-08-11T15:02:58;29.50;30.20
5346;DHT22;2695;49.444;11.054;2022-08-11T15:05:43;29.40;30.30
5346;DHT22;2695;49.444;11.054;2022-08-11T15:08:25;29.30;30.40
5346;DHT22;2695;49.444;11.054;2022-08-11T15:11:09;29.20;30.70
5346;DHT22;2695;49.444;11.054;2022-08-11T15:13:53;29.10;31.10
5346;DHT22;2695;49.444;11.054;2022-08-11T15:16:25;29.10;30.60
5346;DHT22;2695;49.444;11.054;2022-08-11T15:19:12;29.10;30.10
5346;DHT22;2695;49.444;11.054;2022-08-11T15:21:41;29.10;30.40
5346;DHT22;2695;49.444;11.054;2022-08-11T15:24:27;29.10;30.70
5346;DHT22;2695;49.444;11.054;2022-08-11T15:26:58;29.20;30.50
5346;DHT22;2695;49.444;11.054;2022-08-11T15:29:46;29.20;30.10
5346;DHT22;2695;49.444;11.054;2022-08-11T15:32:33;29.20;30.50
5346;DHT22;2695;49.444;11.054;2022-08-11T15:35:20;29.20;30.50
5346;DHT22;2695;49.444;11.054;2022-08-11T15:38:05;29.20;30.80
5346;DHT22;2695;49.444;11.054;2022-08-11T15:40:37;29.20;30.90
5346;DHT22;2695;49.444;11.054;2022-08-11T15:43:27;29.20;31.10
5346;DHT22;2695;49.444;11.054;2022-08-11T15:46:30;29.00;30.40
5346;DHT22;2695;49.444;11.054;2022-08-11T15:49:02;29.00;31.10
5346;DHT22;2695;49.444;11.054;2022-08-11T15:51:34;28.90;31.50
5346;DHT22;2695;49.444;11.054;2022-08-11T15:54:06;28.80;31.50
5346;DHT22;2695;49.444;11.054;2022-08-11T15:56:36;28.80;31.60
5346;DHT22;2695;49.444;11.054;2022-08-11T15:59:07;28.80;31.40
5346;DHT22;2695;49.444;11.054;2022-08-11T16:02:12;28.70;31.40
5346;DHT22;2695;49.444;11.054;2022-08-11T16:05:02;28.70;31.90
5346;DHT22;2695;49.444;11.054;2022-08-11T16:07:32;28.60;32.00
5346;DHT22;2695;49.444;11.054;2022-08-11T16:10:09;28.60;32.00
5346;DHT22;2695;49.444;11.054;2022-08-11T16:12:46;28.60;32.50
5346;DHT22;2695;49.444;11.054;2022-08-11T16:15:48;28.60;32.30
5346;DHT22;2695;49.444;11.054;2022-08-11T16:18:38;28.60;32.70
5346;DHT22;2695;49.444;11.054;2022-08-11T16:21:11;28.50;32.30
5346;DHT22;2695;49.444;11.054;2022-08-11T16:24:00;28.40;32.20
5346;DHT22;2695;49.444;11.054;2022-08-11T16:26:30;28.30;32.20
5346;DHT22;2695;49.444;11.054;2022-08-11T16:29:20;28.30;32.10
5346;DHT22;2695;49.444;11.054;2022-08-11T16:31:51;28.20;33.00
5346;DHT22;2695;49.444;11.054;2022-08-11T16:34:33;28.20;33.20
5346;DHT22;2695;49.444;11.054;2022-08-11T16:37:24;28.10;33.40
5346;DHT22;2695;49.444;11.054;2022-08-11T16:40:11;28.20;33.90
5346;DHT22;2695;49.444;11.054;2022-08-11T16:42:41;28.20;34.00
5346;DHT22;2695;49.444;11.054;2022-08-11T16:45:38;28.10;34.40
5346;DHT22;2695;49.444;11.054;2022-08-11T16:48:27;28.10;34.50
5346;DHT22;2695;49.444;11.054;2022-08-11T16:51:04;28.10;34.70
5346;DHT22;2695;49.444;11.054;2022-08-11T16:53:33;28.00;34.60
5346;DHT22;2695;49.444;11.054;2022-08-11T16:56:29;28.00;34.80
5346;DHT22;2695;49.444;11.054;2022-08-11T16:59:01;28.00;34.80
5346;DHT22;2695;49.444;11.054;2022-08-11T17:01:44;28.00;34.90
5346;DHT22;2695;49.444;11.054;2022-08-11T17:04:18;28.10;35.10
5346;DHT22;2695;49.444;11.054;2022-08-11T17:07:05;28.10;34.90
5346;DHT22;2695;49.444;11.054;2022-08-11T17:10:14;28.10;34.90
5346;DHT22;2695;49.444;11.054;2022-08-11T17:13:27;28.10;34.80
5346;DHT22;2695;49.444;11.054;2022-08-11T17:15:59;28.00;34.70
5346;DHT22;2695;49.444;11.054;2022-08-11T17:18:39;28.00;35.00
5346;DHT22;2695;49.444;11.054;2022-08-11T17:21:19;28.00;35.10
5346;DHT22;2695;49.444;11.054;2022-08-11T17:23:51;27.90;35.20
5346;DHT22;2695;49.444;11.054;2022-08-11T17:26:26;27.90;35.50
5346;DHT22;2695;49.444;11.054;2022-08-11T17:29:16;27.90;35.80
5346;DHT22;2695;49.444;11.054;2022-08-11T17:31:46;27.80;35.80
5346;DHT22;2695;49.444;11.054;2022-08-11T17:34:33;27.80;35.80
5346;DHT22;2695;49.444;11.054;2022-08-11T17:37:20;27.80;36.70
5346;DHT22;2695;49.444;11.054;2022-08-11T17:39:50;27.80;36.10
5346;DHT22;2695;49.444;11.054;2022-08-11T17:42:24;27.70;35.90
5346;DHT22;2695;49.444;11.054;2022-08-11T17:45:12;27.70;36.10
5346;DHT22;2695;49.444;11.054;2022-08-11T17:48:00;27.60;36.20
5346;DHT22;2695;49.444;11.054;2022-08-11T17:50:47;27.60;36.50
5346;DHT22;2695;49.444;11.054;2022-08-11T17:53:16;27.60;36.60
5346;DHT22;2695;49.444;11.054;2022-08-11T17:56:03;27.50;36.60
5346;DHT22;2695;49.444;11.054;2022-08-11T17:58:52;27.40;36.80
5346;DHT22;2695;49.444;11.054;2022-08-11T18:01:41;27.30;36.90
5346;DHT22;2695;49.444;11.054;2022-08-11T18:04:16;27.30;36.90
5346;DHT22;2695;49.444;11.054;2022-08-11T18:06:49;27.30;37.10
5346;DHT22;2695;49.444;11.054;2022-08-11T18:09:20;27.20;37.30
5346;DHT22;2695;49.444;11.054;2022-08-11T18:12:08;27.20;37.40